Time;durP1;ratioP1;P1;durP2;ratioP2;P2;SDS_P1;SDS_P2;PMS_P1;PMS_P2;Temp;Humidity;BMP_temperature;BMP_pressure;BME280_temperature;BME280_humidity;BME280_pressure;Samples;Min_cycle;Max_cycle;Signal;HPM_P1;HPM_P2
2022/10/29 00:00:37;;;;;;;;;11.75;11.25;;;;;22.57;53.25;101514.09;4977458;28;47142;-55
2022/10/29 00:03:03;;;;;;;;;11.75;11.75;;;;;22.58;52.88;101510.53;4976989;28;45211;-56
2022/10/29 00:05:28;;;;;;;;;11.00;10.75;;;;;22.58;53.43;101518.44;4989479;28;45179;-54
2022/10/29 00:07:53;;;;;;;;;10.75;10.75;;;;;22.57;53.27;101506.16;4996907;28;45227;-56
2022/10/29 00:10:19;;;;;;;;;14.00;12.50;;;;;22.58;53.19;101497.31;4981935;28;56928;-55
2022/10/29 00:12:44;;;;;;;;;10.25;10.25;;;;;22.58;53.52;101511.38;4978120;28;45425;-55
2022/10/29 00:15:10;;;;;;;;;17.75;12.25;;;;;22.57;52.95;101493.84;4978311;28;45341;-56
2022/10/29 00:17:35;;;;;;;;;11.50;10.00;;;;;22.57;53.04;101474.47;4983611;28;45430;-55
2022/10/29 00:20:01;;;;;;;;;11.00;10.50;;;;;22.58;53.09;101486.75;4988321;28;45421;-56
2022/10/29 00:22:26;;;;;;;;;8.00;8.00;;;;;22.57;53.17;101467.41;4994107;28;45447;-55
2022/10/29 00:24:51;;;;;;;;;6.50;6.25;;;;;22.57;53.24;101466.53;4991710;28;45353;-56
2022/10/29 00:27:16;;;;;;;;;9.25;9.00;;;;;22.57;53.29;101466.53;4982896;28;45802;-56
2022/10/29 00:29:42;;;;;;;;;10.75;8.50;;;;;22.58;53.30;101470.91;4993257;28;53439;-56
2022/10/29 00:32:08;;;;;;;;;13.25;12.50;;;;;22.57;53.44;101477.09;4991616;28;52233;-55
2022/10/29 00:34:34;;;;;;;;;11.75;11.75;;;;;22.58;53.23;101473.53;4988821;28;45420;-55
2022/10/29 00:36:59;;;;;;;;;13.00;10.75;;;;;22.57;53.51;101475.34;4987592;28;45504;-54
2022/10/29 00:39:25;;;;;;;;;12.25;10.00;;;;;22.57;53.44;101461.25;4978405;28;51004;-56
2022/10/29 00:41:51;;;;;;;;;12.00;11.00;;;;;22.57;53.23;101455.97;4976254;28;59277;-55
2022/10/29 00:44:35;;;;;;;;;12.50;12.25;;;;;22.58;53.19;101457.69;4976739;28;45317;-55
2022/10/29 00:47:30;;;;;;;;;10.50;10.50;;;;;22.55;52.87;101456.91;4977171;28;45561;-55
2022/10/29 00:50:01;;;;;;;;;13.00;11.25;;;;;22.57;53.23;101455.97;4976977;28;46400;-55
2022/10/29 00:52:31;;;;;;;;;11.75;11.50;;;;;22.57;53.42;101450.69;4976782;28;45776;-55
2022/10/29 00:55:01;;;;;;;;;13.00;10.00;;;;;22.55;53.24;101438.41;4976741;28;45475;-55
2022/10/29 00:57:35;;;;;;;;;10.25;10.25;;;;;22.56;53.31;101426.06;4978589;28;45479;-54
2022/10/29 01:00:01;;;;;;;;;10.00;10.00;;;;;22.56;53.25;101441.94;4984851;28;46776;-55
2022/10/29 01:02:29;;;;;;;;;11.25;10.00;;;;;22.55;53.38;101438.41;4977861;28;45362;-56
2022/10/29 01:04:55;;;;;;;;;9.00;9.00;;;;;22.57;53.07;101419.00;4976872;28;45325;-55
2022/10/29 01:07:21;;;;;;;;;12.50;11.75;;;;;22.55;53.11;101406.72;4976653;28;45384;-55
2022/10/29 01:09:47;;;;;;;;;9.50;9.00;;;;;22.54;53.23;101412.94;4976438;28;45508;-55
2022/10/29 01:12:31;;;;;;;;;9.75;9.75;;;;;22.56;53.33;101399.66;4976262;28;45316;-55
2022/10/29 01:15:02;;;;;;;;;10.75;10.75;;;;;22.56;53.17;101399.66;4976509;28;45245;-55
2022/10/29 01:17:39;;;;;;;;;8.50;7.25;;;;;22.55;53.07;101398.78;4976680;28;45253;-55
2022/10/29 01:20:22;;;;;;;;;10.00;10.00;;;;;22.56;53.11;101404.94;4976660;28;45738;-56
2022/10/29 01:23:06;;;;;;;;;13.75;11.50;;;;;22.55;53.42;101401.44;4976174;28;45326;-55
2022/10/29 01:25:53;;;;;;;;;8.00;8.00;;;;;22.56;53.04;101407.59;4979196;28;45513;-55
2022/10/29 01:28:34;;;;;;;;;14.25;11.00;;;;;22.55;53.40;101401.44;4984360;28;45250;-56
2022/10/29 01:31:18;;;;;;;;;14.25;11.00;;;;;22.55;53.22;101396.16;4976310;28;46640;-56
2022/10/29 01:33:49;;;;;;;;;11.00;11.00;;;;;22.55;53.34;101404.06;4977955;28;45816;-56
2022/10/29 01:36:38;;;;;;;;;10.00;9.75;;;;;22.56;53.34;101399.66;4979809;28;45395;-55
2022/10/29 01:39:07;;;;;;;;;5.75;5.75;;;;;22.57;53.28;101395.22;4994689;28;45317;-55
2022/10/29 01:42:00;;;;;;;;;10.00;9.50;;;;;22.54;53.13;101386.50;4997242;28;45609;-55
2022/10/29 01:44:34;;;;;;;;;11.00;11.00;;;;;22.55;53.32;101385.59;4979944;28;45332;-56
2022/10/29 01:47:00;;;;;;;;;12.50;10.75;;;;;;;;4979556;28;45418;-56
2022/10/29 01:49:37;;;;;;;;;13.75;11.00;;;;;22.54;53.48;101365.38;4980275;28;45488;-56
2022/10/29 01:52:05;;;;;;;;;13.25;11.00;;;;;22.54;53.35;101362.75;4979232;28;46544;-56
2022/10/29 01:54:30;;;;;;;;;11.75;11.00;;;;;22.55;53.05;101348.59;4985325;28;45345;-54
2022/10/29 01:56:57;;;;;;;;;10.50;9.75;;;;;22.55;53.25;101348.59;4985591;28;45330;-55
2022/10/29 01:59:25;;;;;;;;;12.25;11.75;;;;;;;;4983238;28;45300;-56
2022/10/29 02:02:00;;;;;;;;;11.75;10.75;;;;;22.54;53.24;101346.88;4987756;28;47708;-55
2022/10/29 02:04:44;;;;;;;;;10.25;10.25;;;;;22.54;53.22;101333.69;4989095;28;45312;-56
2022/10/29 02:07:34;;;;;;;;;12.00;12.00;;;;;22.53;53.11;101316.16;4979786;28;45373;-56
2022/10/29 02:10:06;;;;;;;;;9.75;9.25;;;;;;;;4979470;28;45299;-54
2022/10/29 02:12:48;;;;;;;;;11.75;9.25;;;;;22.54;53.39;101311.72;4978988;28;46536;-54
2022/10/29 02:15:23;;;;;;;;;10.50;9.00;;;;;22.54;53.31;101314.34;4978786;28;45231;-56
2022/10/29 02:17:48;;;;;;;;;9.75;9.75;;;;;22.53;52.97;101296.78;4979077;28;45350;-56
2022/10/29 02:20:15;;;;;;;;;12.75;10.00;;;;;22.52;53.14;101298.59;4979414;28;45631;-56
2022/10/29 02:22:41;;;;;;;;;10.00;9.75;;;;;22.51;53.06;101304.81;4986319;28;46164;-55
2022/10/29 02:25:08;;;;;;;;;11.00;10.00;;;;;22.54;53.38;101309.06;4983094;28;45473;-55
2022/10/29 02:27:33;;;;;;;;;12.00;9.25;;;;;22.53;53.44;101308.22;4979750;28;45408;-55
2022/10/29 02:29:59;;;;;;;;;11.25;9.00;;;;;22.54;53.09;101303.78;4980491;28;45495;-56
2022/10/29 02:32:24;;;;;;;;;11.25;9.50;;;;;22.53;53.06;101300.31;4979677;28;45432;-55
2022/10/29 02:34:49;;;;;;;;;11.25;9.00;;;;;22.53;53.35;101297.66;4979806;28;45436;-55
2022/10/29 02:37:15;;;;;;;;;9.75;9.75;;;;;22.53;53.36;101292.38;4980862;28;45445;-55
2022/10/29 02:39:40;;;;;;;;;11.50;10.50;;;;;22.54;52.97;101293.22;4980799;28;45388;-55
2022/10/29 02:42:05;;;;;;;;;10.50;9.00;;;;;22.53;53.46;101287.09;4979812;28;45370;-56
2022/10/29 02:44:30;;;;;;;;;12.25;10.00;;;;;22.53;53.32;101291.50;4979172;28;45335;-55
2022/10/29 02:46:56;;;;;;;;;10.50;10.00;;;;;22.53;53.23;101288.88;4979490;28;45643;-56
2022/10/29 02:49:21;;;;;;;;;12.25;10.75;;;;;22.51;53.30;101278.41;4981404;28;45228;-55
2022/10/29 02:51:47;;;;;;;;;11.00;9.00;;;;;22.54;53.39;101282.66;4991958;28;46293;-55
2022/10/29 02:54:12;;;;;;;;;8.50;8.50;;;;;22.54;53.15;101283.50;4999532;28;45914;-56
2022/10/29 02:56:37;;;;;;;;;10.00;10.00;;;;;22.55;53.31;101287.84;4998489;28;50838;-55
2022/10/29 02:59:02;;;;;;;;;10.00;9.25;;;;;22.54;53.11;101287.94;4998848;28;45050;-55
2022/10/29 03:01:28;;;;;;;;;9.50;9.50;;;;;22.54;53.22;101274.72;4998584;28;47540;-54
2022/10/29 03:03:53;;;;;;;;;11.50;10.75;;;;;22.53;53.48;101265.97;4983305;28;45330;-55
2022/10/29 03:06:19;;;;;;;;;9.25;7.50;;;;;22.53;53.38;101262.47;4980354;28;45314;-54
2022/10/29 03:08:46;;;;;;;;;9.50;9.25;;;;;22.53;53.46;101265.97;4979858;28;45487;-54
2022/10/29 03:11:12;;;;;;;;;8.50;8.00;;;;;22.54;53.05;101269.44;4980634;28;48028;-57
2022/10/29 03:13:37;;;;;;;;;11.00;10.25;;;;;22.54;53.18;101256.25;4977869;28;45512;-55
2022/10/29 03:16:03;;;;;;;;;10.75;10.75;;;;;22.55;53.45;101264.06;4977819;28;45457;-55
2022/10/29 03:18:29;;;;;;;;;13.00;12.25;;;;;22.55;52.89;101253.50;4984436;28;45774;-56
2022/10/29 03:20:54;;;;;;;;;11.00;11.00;;;;;22.55;53.08;101256.13;4980982;28;45459;-52
2022/10/29 03:23:21;;;;;;;;;10.00;9.00;;;;;22.54;53.24;101262.34;4978225;28;47962;-55
2022/10/29 03:25:53;;;;;;;;;11.00;9.50;;;;;22.54;53.09;101261.53;4997887;28;45366;-52
2022/10/29 03:28:23;;;;;;;;;15.75;9.75;;;;;22.53;53.12;101255.41;4999536;28;45333;-56
2022/10/29 03:30:48;;;;;;;;;9.75;9.50;;;;;22.54;53.23;101254.44;5000336;28;46579;-55
2022/10/29 03:33:14;;;;;;;;;12.50;10.00;;;;;22.55;53.31;101274.63;4983225;28;45459;-55
2022/10/29 03:35:39;;;;;;;;;11.25;10.00;;;;;;;;4978666;28;45367;-56
2022/10/29 03:38:04;;;;;;;;;11.50;8.50;;;;;22.54;53.46;101272.91;4984268;28;45425;-55
2022/10/29 03:40:30;;;;;;;;;9.00;9.00;;;;;22.53;52.70;101265.97;4982778;28;45518;-55
2022/10/29 03:42:55;;;;;;;;;10.75;9.25;;;;;22.53;52.92;101265.97;4987359;28;47681;-55
2022/10/29 03:45:20;;;;;;;;;10.00;9.00;;;;;22.53;52.92;101265.97;4983500;28;45251;-56
2022/10/29 03:47:46;;;;;;;;;12.00;10.25;;;;;22.52;52.94;101248.41;4985895;28;45214;-54
2022/10/29 03:50:11;;;;;;;;;11.00;10.00;;;;;22.52;53.21;101264.25;4979084;28;45345;-56
2022/10/29 03:52:37;;;;;;;;;13.25;12.25;;;;;22.53;52.98;101271.25;4978193;28;45471;-56
2022/10/29 03:55:03;;;;;;;;;8.00;8.00;;;;;22.53;53.08;101271.25;4977635;28;45371;-56
2022/10/29 03:57:29;;;;;;;;;11.00;10.25;;;;;22.52;53.06;101258.97;4977776;28;45373;-55
2022/10/29 03:59:55;;;;;;;;;10.50;9.00;;;;;22.52;52.93;101232.56;4978754;28;45497;-55
2022/10/29 04:02:20;;;;;;;;;10.75;9.25;;;;;22.52;53.01;101227.28;4977789;28;45427;-54
2022/10/29 04:04:46;;;;;;;;;13.00;9.50;;;;;22.53;53.28;101242.19;4979433;28;45342;-55
2022/10/29 04:07:11;;;;;;;;;10.33;10.00;;;;;22.53;53.11;101252.75;4979038;28;53953;-55
2022/10/29 04:09:36;;;;;;;;;14.25;9.00;;;;;22.51;52.87;101254.63;4985525;28;47226;-55
2022/10/29 04:12:02;;;;;;;;;7.50;7.25;;;;;22.52;53.31;101266.03;4990204;28;45435;-56
2022/10/29 04:14:28;;;;;;;;;9.00;9.00;;;;;22.53;52.89;101270.38;4988304;28;45290;-55
2022/10/29 04:16:53;;;;;;;;;9.75;9.25;;;;;22.52;53.01;101260.75;4986821;28;45206;-55
2022/10/29 04:19:18;;;;;;;;;14.25;10.00;;;;;22.52;52.93;101264.25;4995850;28;45247;-55
2022/10/29 04:21:43;;;;;;;;;12.75;10.75;;;;;22.52;53.27;101266.03;4997838;28;44693;-54
2022/10/29 04:24:09;;;;;;;;;9.00;7.50;;;;;22.53;53.08;101276.53;4996259;28;45265;-54
2022/10/29 04:26:34;;;;;;;;;10.25;9.00;;;;;22.53;53.19;101281.81;4986773;28;45242;-55
2022/10/29 04:28:59;;;;;;;;;8.75;7.75;;;;;22.51;52.85;101262.56;4977489;28;47126;-55
2022/10/29 04:31:25;;;;;;;;;10.25;9.00;;;;;22.52;52.86;101261.63;4975852;28;46209;-55
2022/10/29 04:33:53;;;;;;;;;9.00;9.00;;;;;22.51;53.17;101249.34;4977367;28;45292;-56
2022/10/29 04:36:18;;;;;;;;;7.25;6.25;;;;;22.52;52.81;101258.97;4978077;28;45377;-55
2022/10/29 04:38:44;;;;;;;;;7.50;7.50;;;;;22.51;52.86;101254.63;4977311;28;50743;-53
2022/10/29 04:41:09;;;;;;;;;9.00;9.00;;;;;22.52;53.07;101234.34;4978689;28;45334;-55
2022/10/29 04:43:34;;;;;;;;;9.00;9.00;;;;;22.51;53.24;101241.44;4983600;28;47662;-56
2022/10/29 04:46:00;;;;;;;;;10.50;9.75;;;;;22.52;52.80;101244.91;4980096;28;45500;-54
2022/10/29 04:48:26;;;;;;;;;11.75;10.25;;;;;22.51;52.90;101256.41;4986286;28;46307;-57
2022/10/29 04:50:52;;;;;;;;;9.00;9.00;;;;;22.51;52.85;101248.47;4996313;28;45239;-55
2022/10/29 04:53:18;;;;;;;;;9.50;9.50;;;;;22.51;52.73;101238.78;4978648;28;45240;-56
2022/10/29 04:55:44;;;;;;;;;9.25;9.25;;;;;22.51;52.93;101235.28;4977659;28;45340;-55
2022/10/29 04:58:14;;;;;;;;;10.00;10.00;;;;;22.50;53.07;101231.78;4977116;28;46618;-55
2022/10/29 05:00:40;;;;;;;;;10.00;10.00;;;;;22.50;52.84;101237.06;4977357;28;45441;-55
2022/10/29 05:03:05;;;;;;;;;11.00;10.00;;;;;22.51;52.78;101227.34;4977417;28;45444;-56
2022/10/29 05:05:31;;;;;;;;;9.75;8.25;;;;;22.51;53.11;101230.00;4977121;28;45609;-56
2022/10/29 05:08:01;;;;;;;;;10.00;9.25;;;;;22.50;52.86;101229.16;4978760;28;46710;-56
2022/10/29 05:10:28;;;;;;;;;12.25;9.75;;;;;22.50;52.78;101229.16;4987231;28;45569;-56
2022/10/29 05:13:02;;;;;;;;;11.00;9.75;;;;;22.49;52.69;101222.16;4986510;28;45482;-54
2022/10/29 05:15:28;;;;;;;;;9.75;8.75;;;;;22.50;52.94;101225.66;5000444;28;45385;-57
2022/10/29 05:17:54;;;;;;;;;8.75;8.75;;;;;22.50;52.57;101226.50;4982257;28;45895;-56
2022/10/29 05:20:20;;;;;;;;;12.50;8.50;;;;;22.49;52.99;101222.16;4980743;28;45402;-55
2022/10/29 05:22:46;;;;;;;;;8.00;6.25;;;;;22.50;52.78;101225.66;4980886;28;45416;-56
2022/10/29 05:25:11;;;;;;;;;10.50;9.25;;;;;22.48;52.62;101215.19;4980981;28;45530;-56
2022/10/29 05:27:37;;;;;;;;;6.75;6.75;;;;;22.50;52.78;101229.16;4980609;28;46168;-55
2022/10/29 05:30:02;;;;;;;;;9.00;9.00;;;;;22.49;52.63;101222.16;4983564;28;45221;-55
2022/10/29 05:32:28;;;;;;;;;8.00;7.00;;;;;22.50;53.14;101212.44;4984050;28;45300;-55
2022/10/29 05:34:53;;;;;;;;;9.00;9.00;;;;;22.49;52.90;101202.84;4992761;28;45455;-56
2022/10/29 05:37:19;;;;;;;;;12.25;9.25;;;;;22.49;52.75;101203.69;4994286;28;45480;-54
2022/10/29 05:39:44;;;;;;;;;9.00;9.00;;;;;22.50;53.04;101208.03;5001479;28;44690;-56
2022/10/29 05:42:09;;;;;;;;;10.25;9.00;;;;;22.49;52.70;101195.75;5001802;28;55236;-55
2022/10/29 05:44:35;;;;;;;;;9.25;8.50;;;;;22.50;52.83;101188.66;5000107;28;45186;-56
2022/10/29 05:47:00;;;;;;;;;9.50;9.00;;;;;22.52;53.00;101187.66;5001047;28;46295;-54
2022/10/29 05:49:25;;;;;;;;;9.00;8.00;;;;;22.53;52.98;101185.84;5003921;28;44675;-54
2022/10/29 05:51:51;;;;;;;;;9.75;8.75;;;;;22.53;52.92;101192.00;5003449;28;44713;-54
2022/10/29 05:54:17;;;;;;;;;11.00;9.00;;;;;22.53;52.79;101194.66;5003108;28;45535;-55
2022/10/29 05:56:42;;;;;;;;;11.50;10.00;;;;;22.53;53.03;101188.50;4990876;28;46664;-57
2022/10/29 05:59:08;;;;;;;;;9.00;7.75;;;;;22.53;53.11;101185.84;4984830;28;45458;-55
2022/10/29 06:01:33;;;;;;;;;9.75;9.00;;;;;22.51;53.03;101183.31;4983760;28;45433;-57
2022/10/29 06:04:00;;;;;;;;;10.25;9.00;;;;;22.51;52.85;101185.97;4984129;28;45591;-56
2022/10/29 06:06:25;;;;;;;;;9.50;7.00;;;;;22.53;52.71;101188.50;4988703;28;46435;-54
2022/10/29 06:08:51;;;;;;;;;8.75;8.00;;;;;22.52;52.58;101181.50;4983218;28;45300;-55
2022/10/29 06:11:16;;;;;;;;;11.50;10.00;;;;;22.52;53.10;101179.72;4981099;28;45424;-56
2022/10/29 06:13:41;;;;;;;;;11.25;9.00;;;;;22.52;53.14;101179.72;4979814;28;47159;-52
2022/10/29 06:16:07;;;;;;;;;9.75;8.50;;;;;22.53;52.75;101181.44;4979415;28;45429;-55
2022/10/29 06:18:32;;;;;;;;;12.25;10.75;;;;;22.53;52.94;101167.38;4979255;28;45316;-55
2022/10/29 06:20:59;;;;;;;;;10.25;9.00;;;;;22.52;53.03;101166.53;4978048;28;45307;-55
2022/10/29 06:23:24;;;;;;;;;11.00;10.25;;;;;22.53;53.12;101162.94;4979677;28;45528;-56
2022/10/29 06:25:50;;;;;;;;;7.75;7.00;;;;;22.53;52.69;101172.66;4979953;28;45417;-55
2022/10/29 06:28:17;;;;;;;;;8.00;8.00;;;;;22.53;53.07;101170.00;4984174;28;45912;-55
2022/10/29 06:30:48;;;;;;;;;8.50;8.25;;;;;22.53;52.85;101180.56;4984184;28;45442;-55
2022/10/29 06:33:15;;;;;;;;;11.00;9.00;;;;;22.52;52.87;101187.66;4985782;28;45246;-55
2022/10/29 06:35:40;;;;;;;;;10.50;9.50;;;;;22.52;52.83;101200.00;4983277;28;46395;-55
2022/10/29 06:38:06;;;;;;;;;9.50;9.00;;;;;22.51;53.00;101199.16;4983904;28;45237;-55
2022/10/29 06:40:31;;;;;;;;;9.25;8.25;;;;;22.52;52.92;101206.16;4990940;28;44692;-59
2022/10/29 06:43:02;;;;;;;;;9.25;7.00;;;;;22.53;53.15;101202.56;4994981;28;45535;-56
2022/10/29 06:45:28;;;;;;;;;10.50;9.00;;;;;22.55;52.77;101184.81;4997175;28;45658;-50
2022/10/29 06:47:54;;;;;;;;;11.25;10.25;;;;;22.57;52.81;101203.25;4991231;28;45183;-56
2022/10/29 06:50:19;;;;;;;;;13.75;10.00;;;;;22.59;53.20;101216.34;4981807;28;45345;-54
2022/10/29 06:53:02;;;;;;;;;8.50;8.50;;;;;22.60;53.08;101218.06;4980464;28;45379;-57
2022/10/29 06:55:32;;;;;;;;;14.25;11.75;;;;;22.59;52.87;101213.69;4979528;28;46456;-57
2022/10/29 06:58:01;;;;;;;;;17.00;12.00;;;;;;;;4978310;28;45927;-57
2022/10/29 07:00:30;;;;;;;;;17.75;12.50;;;;;22.48;52.13;101204.63;4981198;28;45386;-55
2022/10/29 07:02:56;;;;;;;;;16.25;12.25;;;;;22.41;52.06;101205.91;4966922;28;45588;-56
2022/10/29 07:05:22;;;;;;;;;7.50;6.00;;;;;22.37;51.49;101196.44;4979117;28;45355;-54
2022/10/29 07:07:48;;;;;;;;;8.00;8.00;;;;;22.33;51.54;101190.47;4980042;28;45919;-56
2022/10/29 07:10:13;;;;;;;;;14.00;11.75;;;;;22.27;51.60;101184.69;4981008;28;45395;-57
2022/10/29 07:12:43;;;;;;;;;13.25;10.25;;;;;22.21;51.63;101184.09;4979671;28;45757;-58
2022/10/29 07:15:09;;;;;;;;;15.25;13.00;;;;;22.18;51.71;101193.97;4978940;28;46266;-57
2022/10/29 07:17:35;;;;;;;;;12.25;10.25;;;;;22.15;51.97;101189.72;4979078;28;45691;-56
2022/10/29 07:20:01;;;;;;;;;13.25;8.50;;;;;22.11;51.63;101185.56;4978991;28;45352;-56
2022/10/29 07:22:26;;;;;;;;;15.00;13.00;;;;;22.08;51.45;101186.59;4979379;28;45581;-56
2022/10/29 07:24:51;;;;;;;;;12.50;12.50;;;;;22.04;51.45;101182.44;4979125;28;46632;-57
2022/10/29 07:27:17;;;;;;;;;12.33;12.33;;;;;22.01;51.48;101177.31;4978692;28;66724;-57
2022/10/29 07:29:42;;;;;;;;;13.75;12.00;;;;;21.99;51.46;101176.56;4983795;28;45436;-57
2022/10/29 07:32:07;;;;;;;;;11.25;9.50;;;;;21.98;51.29;101180.13;4986909;28;45535;-57
2022/10/29 07:34:33;;;;;;;;;12.25;11.50;;;;;21.97;51.54;101172.31;4985748;28;63810;-56
2022/10/29 07:36:58;;;;;;;;;12.75;8.50;;;;;21.93;51.24;101177.75;4979389;28;45315;-56
2022/10/29 07:39:23;;;;;;;;;15.00;10.00;;;;;21.94;51.12;101178.59;4978492;28;45454;-54
2022/10/29 07:41:49;;;;;;;;;14.25;12.50;;;;;21.92;51.32;101181.31;4978378;28;45528;-55
2022/10/29 07:44:14;;;;;;;;;12.50;11.25;;;;;21.91;51.21;101171.69;4977972;28;45656;-56
2022/10/29 07:46:39;;;;;;;;;11.00;11.00;;;;;21.91;51.25;101171.69;4978685;28;45511;-57
2022/10/29 07:49:05;;;;;;;;;15.00;11.50;;;;;21.89;51.25;101170.94;4978814;28;48029;-54
2022/10/29 07:51:30;;;;;;;;;10.50;9.00;;;;;21.89;51.44;101170.94;4979053;28;45250;-55
2022/10/29 07:53:55;;;;;;;;;14.50;11.00;;;;;21.89;51.04;101168.28;4978235;28;45465;-56
2022/10/29 07:56:20;;;;;;;;;9.50;8.00;;;;;21.87;51.08;101169.31;4981808;28;52383;-59
2022/10/29 07:58:46;;;;;;;;;12.25;11.75;;;;;21.87;50.61;101166.69;4984103;28;45432;-56
2022/10/29 08:01:11;;;;;;;;;14.00;10.00;;;;;21.85;51.02;101176.47;4978710;28;45269;-57
2022/10/29 08:03:37;;;;;;;;;15.67;10.67;;;;;21.85;50.89;101179.09;4977522;28;64066;-56
2022/10/29 08:06:02;;;;;;;;;11.75;11.00;;;;;21.85;51.27;101194.94;4978411;28;45369;-56
2022/10/29 08:08:28;;;;;;;;;11.00;11.00;;;;;21.84;50.84;101188.81;4978220;28;45407;-53
2022/10/29 08:10:58;;;;;;;;;12.25;10.75;;;;;21.84;50.85;101199.38;4977700;28;45737;-55
2022/10/29 08:13:23;;;;;;;;;13.50;11.00;;;;;21.83;50.95;101204.75;4976967;28;46253;-54
2022/10/29 08:15:49;;;;;;;;;15.00;11.00;;;;;21.83;50.76;101199.47;4976838;28;45323;-55
2022/10/29 08:18:16;;;;;;;;;12.75;10.75;;;;;21.83;50.73;101202.94;4985023;28;45686;-55
2022/10/29 08:20:42;;;;;;;;;11.00;10.00;;;;;21.83;50.95;101202.09;4983015;28;45516;-56
2022/10/29 08:23:07;;;;;;;;;13.75;12.50;;;;;21.84;50.91;101198.50;4980069;28;46071;-56
2022/10/29 08:25:33;;;;;;;;;11.25;11.25;;;;;21.82;50.95;101201.25;4983685;28;45274;-56
2022/10/29 08:28:02;;;;;;;;;13.00;12.00;;;;;21.82;51.04;101201.25;4979076;28;45607;-56
2022/10/29 08:30:28;;;;;;;;;16.75;15.00;;;;;21.82;50.84;101211.78;4977222;28;45907;-57
2022/10/29 08:32:53;;;;;;;;;16.00;10.75;;;;;21.83;50.71;101212.66;4981296;28;46270;-56
2022/10/29 12:47:46;;;;;;;;;9.25;7.25;;;;;22.66;47.17;101065.31;4976882;28;45776;-45
2022/10/29 12:50:30;;;;;;;;;7.75;7.00;;;;;22.67;47.31;101061.72;4984403;28;45925;-44
2022/10/29 12:53:16;;;;;;;;;10.00;9.00;;;;;22.69;47.05;101069.56;4989865;28;45174;-45
2022/10/29 12:55:45;;;;;;;;;9.00;9.00;;;;;22.68;46.65;101063.44;4985665;28;45173;-44
2022/10/29 12:58:41;;;;;;;;;7.00;7.00;;;;;22.70;46.93;101060.69;4985077;28;45322;-51
2022/10/29 13:01:27;;;;;;;;;9.25;7.00;;;;;22.71;47.06;101067.66;5022269;28;45869;-47
2022/10/29 13:03:53;;;;;;;;;5.25;4.75;;;;;22.72;46.29;101074.66;5021146;28;45492;-55
2022/10/29 13:06:40;;;;;;;;;12.00;8.00;;;;;22.72;46.39;101079.94;5020661;28;45438;-52
2022/10/29 13:09:17;;;;;;;;;7.00;7.00;;;;;22.73;46.45;101076.34;5023828;28;46035;-53
2022/10/29 13:11:51;;;;;;;;;10.00;7.00;;;;;22.73;46.31;101063.16;5021412;28;45829;-41
2022/10/29 13:14:38;;;;;;;;;7.75;7.00;;;;;22.75;46.08;101063.91;5016387;28;45177;-52
2022/10/29 13:17:18;;;;;;;;;10.75;8.25;;;;;22.74;46.11;101062.22;5015427;28;45245;-41
2022/10/29 13:19:48;;;;;;;;;9.75;6.50;;;;;22.76;45.82;101068.25;5015758;28;46306;-55
2022/10/29 13:22:16;;;;;;;;;11.00;6.75;;;;;22.76;45.57;101075.31;5015343;28;46074;-48
2022/10/29 13:24:42;;;;;;;;;7.50;7.50;;;;;22.77;45.81;101077.00;5016109;28;45487;-55
2022/10/29 13:27:16;;;;;;;;;7.75;5.00;;;;;22.76;45.30;101076.19;5015833;28;45296;-49
2022/10/29 13:29:48;;;;;;;;;6.50;6.00;;;;;22.77;44.99;101083.13;5017630;28;46347;-52
2022/10/29 13:32:29;;;;;;;;;8.25;6.75;;;;;22.77;45.03;101071.72;5014448;28;45530;-55
2022/10/29 13:34:57;;;;;;;;;12.00;6.00;;;;;22.78;44.67;101061.06;5013214;28;45377;-55
2022/10/29 13:37:44;;;;;;;;;11.25;7.25;;;;;22.80;45.02;101071.56;5024722;28;45439;-54
2022/10/29 13:40:21;;;;;;;;;10.00;7.00;;;;;22.78;44.98;101050.47;5010655;28;46104;-49
2022/10/29 13:43:13;;;;;;;;;7.25;6.75;;;;;22.79;44.75;101060.13;5000491;28;45365;-48
2022/10/29 13:45:44;;;;;;;;;9.00;6.25;;;;;22.79;44.64;101065.41;4997528;28;45337;-52
2022/10/29 13:48:24;;;;;;;;;9.50;7.75;;;;;22.80;44.84;101071.56;5000925;28;45253;-53
2022/10/29 13:50:53;;;;;;;;;8.00;6.00;;;;;22.81;44.79;101078.53;5021422;28;45312;-47
2022/10/29 13:53:28;;;;;;;;;7.25;7.25;;;;;22.81;44.74;101062.69;5023883;28;45788;-44
2022/10/29 13:55:54;;;;;;;;;8.00;6.75;;;;;22.81;45.07;101065.31;5022735;28;45232;-52
2022/10/29 13:58:34;;;;;;;;;9.75;8.25;;;;;22.81;45.16;101052.13;5021122;28;45505;-47
2022/10/29 14:01:06;;;;;;;;;10.25;7.75;;;;;22.82;44.94;101054.66;5019454;28;47058;-50
2022/10/29 14:03:50;;;;;;;;;8.50;7.25;;;;;22.82;44.71;101070.50;5020295;28;45394;-46
2022/10/29 14:06:21;;;;;;;;;10.25;7.75;;;;;22.83;44.85;101072.22;5018663;28;45300;-44
2022/10/29 14:08:56;;;;;;;;;10.50;9.00;;;;;22.84;45.15;101059.81;5019017;28;45447;-47
2022/10/29 14:11:29;;;;;;;;;9.50;7.00;;;;;22.84;44.96;101068.63;5019460;28;46257;-48
2022/10/29 14:13:58;;;;;;;;;9.00;5.50;;;;;22.84;45.64;101065.97;5023173;28;45351;-48
2022/10/29 14:16:31;;;;;;;;;12.00;7.25;;;;;22.85;44.82;101054.47;5026646;28;45414;-49
2022/10/29 14:18:57;;;;;;;;;9.00;6.50;;;;;22.85;44.95;101058.88;5023175;28;45414;-53
2022/10/29 14:21:24;;;;;;;;;10.50;7.50;;;;;22.85;45.44;101065.03;5018936;28;46598;-51
2022/10/29 14:23:58;;;;;;;;;9.25;6.00;;;;;22.87;45.14;101066.75;5019018;28;45334;-54
2022/10/29 14:26:25;;;;;;;;;6.25;6.25;;;;;22.86;45.24;101071.16;5019515;28;45375;-47
2022/10/29 14:28:51;;;;;;;;;10.75;7.00;;;;;22.87;45.52;101061.44;5020397;28;45216;-49
2022/10/29 14:31:24;;;;;;;;;8.50;6.50;;;;;22.88;45.23;101049.91;5019809;28;45399;-49
2022/10/29 14:34:00;;;;;;;;;8.50;7.00;;;;;22.88;45.59;101041.97;5018700;28;45806;-51
2022/10/29 14:36:39;;;;;;;;;7.50;6.25;;;;;22.88;45.56;101056.06;5028352;28;45399;-50
2022/10/29 14:39:29;;;;;;;;;9.50;7.00;;;;;22.90;45.28;101040.09;5030954;28;45375;-51
2022/10/29 14:41:55;;;;;;;;;9.25;7.50;;;;;22.90;45.23;101048.03;5017234;28;47085;-49
2022/10/29 14:44:31;;;;;;;;;0.00;0.00;;;;;22.90;45.50;101056.81;5005066;28;45387;-45
2022/10/29 14:47:05;;;;;;;;;11.75;8.00;;;;;22.90;45.68;101051.53;4998356;28;45552;-46
2022/10/29 14:49:34;;;;;;;;;9.75;8.00;;;;;22.91;45.82;101060.31;4999791;28;45509;-41
2022/10/29 14:52:05;;;;;;;;;8.75;6.25;;;;;22.92;45.56;101043.50;5002961;28;46331;-46
2022/10/29 14:54:35;;;;;;;;;9.75;8.00;;;;;22.90;45.89;101040.97;5025417;28;45185;-48
2022/10/29 14:57:06;;;;;;;;;10.00;7.00;;;;;22.90;45.70;101051.53;5025229;28;45430;-52
2022/10/29 14:59:33;;;;;;;;;8.75;5.00;;;;;22.92;45.48;101059.34;5019559;28;45297;-50
2022/10/29 15:02:00;;;;;;;;;11.25;6.75;;;;;22.92;45.69;101054.94;5017705;28;46268;-53
2022/10/29 15:04:28;;;;;;;;;9.00;7.00;;;;;22.92;45.88;101051.44;5018345;28;45772;-54
2022/10/29 15:07:28;;;;;;;;;8.75;7.00;;;;;22.92;45.79;101051.44;5019295;28;45424;-53
2022/10/29 15:10:15;;;;;;;;;11.75;10.50;;;;;22.92;45.97;101054.06;5018711;28;45355;-47
2022/10/29 15:12:40;;;;;;;;;9.00;7.50;;;;;22.92;45.86;101054.94;5019654;28;46390;-50
2022/10/29 15:15:15;;;;;;;;;13.50;8.00;;;;;22.93;45.83;101056.59;5036225;28;45271;-51
2022/10/29 15:17:49;;;;;;;;;12.50;9.25;;;;;22.94;46.01;101063.59;5031102;28;44748;-51
2022/10/29 15:20:22;;;;;;;;;12.25;8.50;;;;;22.93;45.82;101048.69;5021484;28;45562;-51
2022/10/29 15:22:52;;;;;;;;;9.75;8.25;;;;;22.95;45.82;101048.59;5021087;28;46280;-43
2022/10/29 15:25:34;;;;;;;;;10.00;9.00;;;;;22.94;46.04;101038.97;5020245;28;45339;-48
2022/10/29 15:28:00;;;;;;;;;10.25;9.75;;;;;22.94;46.44;101044.25;5021434;28;45535;-48
2022/10/29 15:30:36;;;;;;;;;10.00;8.50;;;;;22.94;46.17;101062.75;5023228;28;45639;-48
2022/10/29 15:33:07;;;;;;;;;12.25;8.50;;;;;22.94;46.33;101068.88;5025163;28;45285;-55
2022/10/29 15:35:34;;;;;;;;;10.25;10.00;;;;;22.95;46.79;101067.09;5024189;28;45769;-50
2022/10/29 15:38:00;;;;;;;;;11.00;8.00;;;;;22.95;46.57;101072.38;5018653;28;45429;-50
2022/10/29 15:40:25;;;;;;;;;10.00;9.25;;;;;22.95;46.78;101069.75;5018504;28;45576;-44